sensor_id;sensor_type;location;lat;lon;timestamp;pressure;altitude;pressure_sealevel;temperature;humidity
58367;BME280;57745;42.524;12.052;2022-12-15T00:02:01;95841.56;;;15.38;58.48
58367;BME280;57745;42.524;12.052;2022-12-15T00:04:44;95839.28;;;15.37;58.64
58367;BME280;57745;42.524;12.052;2022-12-15T00:07:29;95850.03;;;15.40;58.54
58367;BME280;57745;42.524;12.052;2022-12-15T00:10:13;95847.00;;;15.38;58.63
58367;BME280;57745;42.524;12.052;2022-12-15T00:12:57;95849.28;;;15.40;58.56
58367;BME280;57745;42.524;12.052;2022-12-15T00:15:41;95860.22;;;15.40;58.70
58367;BME280;57745;42.524;12.052;2022-12-15T00:18:25;95868.13;;;15.38;58.44
58367;BME280;57745;42.524;12.052;2022-12-15T00:21:09;95867.94;;;15.41;58.51
58367;BME280;57745;42.524;12.052;2022-12-15T00:23:53;95872.53;;;15.35;58.69
58367;BME280;57745;42.524;12.052;2022-12-15T00:29:58;95869.16;;;15.40;58.33
58367;BME280;57745;42.524;12.052;2022-12-15T00:32:42;95857.75;;;15.42;58.52
58367;BME280;57745;42.524;12.052;2022-12-15T00:35:26;95865.56;;;15.34;58.79
58367;BME280;57745;42.524;12.052;2022-12-15T00:38:12;95873.28;;;15.36;58.66
58367;BME280;57745;42.524;12.052;2022-12-15T00:40:56;95876.03;;;15.36;58.74
58367;BME280;57745;42.524;12.052;2022-12-15T00:43:26;95869.16;;;15.40;58.54
58367;BME280;57745;42.524;12.052;2022-12-15T00:45:52;95880.38;;;15.42;58.30
58367;BME280;57745;42.524;12.052;2022-12-15T00:48:36;95879.03;;;15.38;58.48
58367;BME280;57745;42.524;12.052;2022-12-15T00:51:02;95876.78;;;15.36;58.59
58367;BME280;57745;42.524;12.052;2022-12-15T00:53:27;95876.31;;;15.38;58.39
58367;BME280;57745;42.524;12.052;2022-12-15T00:56:12;95873.75;;;15.34;58.65
58367;BME280;57745;42.524;12.052;2022-12-15T00:58:55;95871.88;;;15.40;58.27
58367;BME280;57745;42.524;12.052;2022-12-15T01:01:40;95881.69;;;15.32;58.68
58367;BME280;57745;42.524;12.052;2022-12-15T01:04:24;95870.78;;;15.32;58.59
58367;BME280;57745;42.524;12.052;2022-12-15T01:07:08;95866.59;;;15.37;58.46
58367;BME280;57745;42.524;12.052;2022-12-15T01:09:52;95870.09;;;15.37;58.47
58367;BME280;57745;42.524;12.052;2022-12-15T01:12:36;95874.72;;;15.31;58.62
58367;BME280;57745;42.524;12.052;2022-12-15T01:15:20;95873.75;;;15.34;58.50
58367;BME280;57745;42.524;12.052;2022-12-15T01:18:04;95878.75;;;15.36;58.42
58367;BME280;57745;42.524;12.052;2022-12-15T01:20:59;95870.56;;;15.36;58.38
58367;BME280;57745;42.524;12.052;2022-12-15T01:23:26;95860.59;;;15.33;58.61
58367;BME280;57745;42.524;12.052;2022-12-15T01:25:52;95857.13;;;15.32;58.50
58367;BME280;57745;42.524;12.052;2022-12-15T01:28:19;95844.69;;;15.31;58.82
58367;BME280;57745;42.524;12.052;2022-12-15T01:30:45;95839.22;;;15.31;58.55
58367;BME280;57745;42.524;12.052;2022-12-15T01:33:11;95844.38;;;15.29;58.82
58367;BME280;57745;42.524;12.052;2022-12-15T01:35:37;95834.28;;;15.35;58.24
58367;BME280;57745;42.524;12.052;2022-12-15T01:38:02;95838.25;;;15.34;58.57
58367;BME280;57745;42.524;12.052;2022-12-15T01:40:28;95840.97;;;15.34;58.44
58367;BME280;57745;42.524;12.052;2022-12-15T01:43:15;95853.34;;;15.30;58.70
58367;BME280;57745;42.524;12.052;2022-12-15T01:48:17;95859.25;;;15.28;58.66
58367;BME280;57745;42.524;12.052;2022-12-15T01:50:57;95870.94;;;15.29;58.56
58367;BME280;57745;42.524;12.052;2022-12-15T01:53:26;95863.78;;;15.31;58.59
58367;BME280;57745;42.524;12.052;2022-12-15T01:55:52;95857.28;;;15.29;58.55
58367;BME280;57745;42.524;12.052;2022-12-15T01:58:19;95856.81;;;15.30;58.63
58367;BME280;57745;42.524;12.052;2022-12-15T02:00:45;95849.16;;;15.34;58.39
58367;BME280;57745;42.524;12.052;2022-12-15T02:03:11;95849.84;;;15.29;58.54
58367;BME280;57745;42.524;12.052;2022-12-15T02:05:38;95847.41;;;15.31;58.50
58367;BME280;57745;42.524;12.052;2022-12-15T02:08:06;95848.63;;;15.30;58.51
58367;BME280;57745;42.524;12.052;2022-12-15T02:11:03;95856.81;;;15.30;58.65
58367;BME280;57745;42.524;12.052;2022-12-15T02:30:08;95874.72;;;15.31;58.44
58367;BME280;57745;42.524;12.052;2022-12-15T02:33:45;95870.56;;;15.21;58.92
58367;BME280;57745;42.524;12.052;2022-12-15T02:38:11;95874.16;;;15.27;58.57
58367;BME280;57745;42.524;12.052;2022-12-15T02:40:37;95890.72;;;15.24;58.74
58367;BME280;57745;42.524;12.052;2022-12-15T02:43:04;95878.84;;;15.27;58.57
58367;BME280;57745;42.524;12.052;2022-12-15T02:45:35;95880.38;;;15.28;58.74
58367;BME280;57745;42.524;12.052;2022-12-15T02:53:46;95874.78;;;15.22;58.84
58367;BME280;57745;42.524;12.052;2022-12-15T02:56:39;95884.97;;;15.22;58.77
58367;BME280;57745;42.524;12.052;2022-12-15T02:59:14;95889.19;;;15.23;58.87
58367;BME280;57745;42.524;12.052;2022-12-15T03:01:50;95887.06;;;15.27;58.88
58367;BME280;57745;42.524;12.052;2022-12-15T03:04:16;95892.22;;;15.25;58.76
58367;BME280;57745;42.524;12.052;2022-12-15T03:06:42;95896.94;;;15.24;58.61
58367;BME280;57745;42.524;12.052;2022-12-15T03:09:08;95889.97;;;15.23;58.92
58367;BME280;57745;42.524;12.052;2022-12-15T03:11:34;95899.97;;;15.26;58.72
58367;BME280;57745;42.524;12.052;2022-12-15T03:14:00;95896.00;;;15.27;58.77
58367;BME280;57745;42.524;12.052;2022-12-15T03:16:26;95885.81;;;15.28;58.67
58367;BME280;57745;42.524;12.052;2022-12-15T03:18:51;95892.06;;;15.28;58.64
58367;BME280;57745;42.524;12.052;2022-12-15T03:21:17;95884.78;;;15.25;58.71
58367;BME280;57745;42.524;12.052;2022-12-15T03:23:42;95888.38;;;15.17;58.98
58367;BME280;57745;42.524;12.052;2022-12-15T03:26:08;95877.25;;;15.20;58.93
58367;BME280;57745;42.524;12.052;2022-12-15T03:28:34;95873.28;;;15.21;59.03
58367;BME280;57745;42.524;12.052;2022-12-15T03:30:59;95883.94;;;15.19;58.94
58367;BME280;57745;42.524;12.052;2022-12-15T03:33:25;95884.50;;;15.23;58.88
58367;BME280;57745;42.524;12.052;2022-12-15T03:35:50;95881.41;;;15.30;58.71
58367;BME280;57745;42.524;12.052;2022-12-15T03:38:16;95877.00;;;15.33;58.47
58367;BME280;57745;42.524;12.052;2022-12-15T03:40:42;95883.75;;;15.23;58.74
58367;BME280;57745;42.524;12.052;2022-12-15T03:43:08;95875.25;;;15.21;58.63
58367;BME280;57745;42.524;12.052;2022-12-15T03:45:33;95881.09;;;15.14;58.88
58367;BME280;57745;42.524;12.052;2022-12-15T03:47:58;95868.19;;;15.14;58.99
58367;BME280;57745;42.524;12.052;2022-12-15T03:50:26;95876.22;;;15.18;59.09
58367;BME280;57745;42.524;12.052;2022-12-15T03:52:58;95872.34;;;15.24;58.46
58367;BME280;57745;42.524;12.052;2022-12-15T03:55:24;95879.25;;;15.20;58.86
58367;BME280;57745;42.524;12.052;2022-12-15T03:57:50;95878.84;;;15.12;58.95
58367;BME280;57745;42.524;12.052;2022-12-15T04:00:18;95880.00;;;15.20;58.66
58367;BME280;57745;42.524;12.052;2022-12-15T04:02:44;95880.72;;;15.21;58.64
58367;BME280;57745;42.524;12.052;2022-12-15T04:05:22;95883.84;;;15.14;59.00
58367;BME280;57745;42.524;12.052;2022-12-15T04:07:51;95884.59;;;15.14;58.94
58367;BME280;57745;42.524;12.052;2022-12-15T04:10:17;95893.38;;;15.18;58.76
58367;BME280;57745;42.524;12.052;2022-12-15T04:12:42;95892.78;;;15.14;58.91
58367;BME280;57745;42.524;12.052;2022-12-15T04:15:09;95890.16;;;15.20;58.56
58367;BME280;57745;42.524;12.052;2022-12-15T04:17:34;95885.47;;;15.20;58.55
58367;BME280;57745;42.524;12.052;2022-12-15T04:20:00;95897.50;;;15.14;58.74
58367;BME280;57745;42.524;12.052;2022-12-15T04:22:39;95901.09;;;15.20;58.51
58367;BME280;57745;42.524;12.052;2022-12-15T04:25:06;95910.31;;;15.22;58.45
58367;BME280;57745;42.524;12.052;2022-12-15T04:27:51;95910.09;;;15.11;58.75
58367;BME280;57745;42.524;12.052;2022-12-15T04:30:35;95909.06;;;15.08;58.87
58367;BME280;57745;42.524;12.052;2022-12-15T04:33:20;95899.94;;;15.12;58.79
58367;BME280;57745;42.524;12.052;2022-12-15T04:36:06;95904.75;;;15.17;58.60
58367;BME280;57745;42.524;12.052;2022-12-15T04:38:50;95912.66;;;15.15;58.61
58367;BME280;57745;42.524;12.052;2022-12-15T04:41:34;95917.94;;;15.18;58.52
58367;BME280;57745;42.524;12.052;2022-12-15T04:44:18;95923.13;;;15.16;58.57
58367;BME280;57745;42.524;12.052;2022-12-15T04:47:02;95922.63;;;15.03;58.96
58367;BME280;57745;42.524;12.052;2022-12-15T04:49:46;95926.47;;;15.11;58.68
58367;BME280;57745;42.524;12.052;2022-12-15T04:52:30;95921.97;;;15.08;58.85
58367;BME280;57745;42.524;12.052;2022-12-15T04:55:14;95934.03;;;15.16;58.50
58367;BME280;57745;42.524;12.052;2022-12-15T04:58:03;95930.25;;;15.14;58.70
58367;BME280;57745;42.524;12.052;2022-12-15T05:00:47;95930.44;;;15.10;58.79
58367;BME280;57745;42.524;12.052;2022-12-15T05:03:31;95930.72;;;15.12;58.66
58367;BME280;57745;42.524;12.052;2022-12-15T05:06:15;95931.47;;;15.13;58.70
58367;BME280;57745;42.524;12.052;2022-12-15T05:09:00;95922.81;;;15.14;58.61
58367;BME280;57745;42.524;12.052;2022-12-15T05:11:44;95935.56;;;15.17;58.49
58367;BME280;57745;42.524;12.052;2022-12-15T05:14:28;95934.78;;;15.17;58.58
58367;BME280;57745;42.524;12.052;2022-12-15T05:17:12;95936.03;;;15.16;58.54
58367;BME280;57745;42.524;12.052;2022-12-15T05:19:56;95926.91;;;15.19;58.42
58367;BME280;57745;42.524;12.052;2022-12-15T05:22:40;95915.28;;;15.09;58.75
58367;BME280;57745;42.524;12.052;2022-12-15T05:25:24;95924.97;;;15.10;58.64
58367;BME280;57745;42.524;12.052;2022-12-15T05:28:08;95941.94;;;15.14;58.72
58367;BME280;57745;42.524;12.052;2022-12-15T05:30:52;95940.59;;;15.09;58.74
58367;BME280;57745;42.524;12.052;2022-12-15T05:33:36;95940.59;;;15.09;58.74
58367;BME280;57745;42.524;12.052;2022-12-15T05:36:01;95943.53;;;15.06;58.96
58367;BME280;57745;42.524;12.052;2022-12-15T05:38:27;95948.34;;;15.11;58.75
58367;BME280;57745;42.524;12.052;2022-12-15T05:40:56;95940.56;;;15.19;58.37
58367;BME280;57745;42.524;12.052;2022-12-15T05:43:22;95938.56;;;15.19;58.55
58367;BME280;57745;42.524;12.052;2022-12-15T05:45:47;95934.78;;;15.17;58.52
58367;BME280;57745;42.524;12.052;2022-12-15T05:48:12;95949.84;;;15.12;58.87
58367;BME280;57745;42.524;12.052;2022-12-15T05:50:38;95946.78;;;15.19;58.60
58367;BME280;57745;42.524;12.052;2022-12-15T05:53:04;95946.78;;;15.19;58.50
58367;BME280;57745;42.524;12.052;2022-12-15T05:55:29;95942.88;;;15.11;58.83
58367;BME280;57745;42.524;12.052;2022-12-15T05:57:55;95944.38;;;15.12;58.67
58367;BME280;57745;42.524;12.052;2022-12-15T06:00:20;95944.97;;;15.16;58.43
58367;BME280;57745;42.524;12.052;2022-12-15T06:02:46;95960.22;;;15.08;58.70
58367;BME280;57745;42.524;12.052;2022-12-15T06:05:12;95962.75;;;15.12;58.73
58367;BME280;57745;42.524;12.052;2022-12-15T06:07:37;95960.88;;;15.18;58.42
58367;BME280;57745;42.524;12.052;2022-12-15T06:10:03;95958.69;;;15.07;58.93
58367;BME280;57745;42.524;12.052;2022-12-15T06:12:29;95961.94;;;15.20;58.50
58367;BME280;57745;42.524;12.052;2022-12-15T06:14:55;95966.53;;;15.14;58.56
58367;BME280;57745;42.524;12.052;2022-12-15T06:17:21;95975.09;;;15.07;58.78
58367;BME280;57745;42.524;12.052;2022-12-15T06:19:47;95984.13;;;15.13;58.73
58367;BME280;57745;42.524;12.052;2022-12-15T06:22:12;95986.56;;;15.11;58.62
58367;BME280;57745;42.524;12.052;2022-12-15T06:24:38;95994.75;;;15.11;58.84
58367;BME280;57745;42.524;12.052;2022-12-15T06:27:03;96003.84;;;15.17;58.65
58367;BME280;57745;42.524;12.052;2022-12-15T06:29:29;96008.25;;;15.15;58.66
58367;BME280;57745;42.524;12.052;2022-12-15T06:31:54;96003.53;;;15.15;58.60
58367;BME280;57745;42.524;12.052;2022-12-15T06:34:19;96008.84;;;15.19;58.51
58367;BME280;57745;42.524;12.052;2022-12-15T06:36:45;96003.53;;;15.15;58.71
58367;BME280;57745;42.524;12.052;2022-12-15T06:39:12;96010.34;;;15.20;58.58
58367;BME280;57745;42.524;12.052;2022-12-15T06:41:39;96009.75;;;15.16;58.61
58367;BME280;57745;42.524;12.052;2022-12-15T06:44:06;96015.00;;;15.04;58.87
58367;BME280;57745;42.524;12.052;2022-12-15T06:46:32;96017.84;;;15.10;58.89
58367;BME280;57745;42.524;12.052;2022-12-15T06:48:59;96016.91;;;15.13;58.62
58367;BME280;57745;42.524;12.052;2022-12-15T06:51:25;96020.56;;;15.10;58.70
58367;BME280;57745;42.524;12.052;2022-12-15T06:53:51;96022.38;;;15.13;58.64
58367;BME280;57745;42.524;12.052;2022-12-15T06:56:33;96031.31;;;15.14;58.57
58367;BME280;57745;42.524;12.052;2022-12-15T06:59:04;96017.44;;;15.02;59.06
58367;BME280;57745;42.524;12.052;2022-12-15T07:01:30;96019.81;;;15.09;58.89
58367;BME280;57745;42.524;12.052;2022-12-15T07:03:56;96016.22;;;15.03;59.10
58367;BME280;57745;42.524;12.052;2022-12-15T07:06:24;96011.75;;;15.15;58.44
58367;BME280;57745;42.524;12.052;2022-12-15T07:08:52;96004.00;;;15.14;58.61
58367;BME280;57745;42.524;12.052;2022-12-15T07:11:19;96015.97;;;15.16;58.60
58367;BME280;57745;42.524;12.052;2022-12-15T07:13:48;96016.50;;;15.05;59.02
58367;BME280;57745;42.524;12.052;2022-12-15T07:16:14;96016.91;;;15.13;58.64
58367;BME280;57745;42.524;12.052;2022-12-15T07:18:40;96027.84;;;15.13;58.74
58367;BME280;57745;42.524;12.052;2022-12-15T07:21:07;96033.47;;;15.09;59.05
58367;BME280;57745;42.524;12.052;2022-12-15T07:23:34;96031.03;;;15.12;58.97
58367;BME280;57745;42.524;12.052;2022-12-15T07:26:03;96027.06;;;15.13;58.71
58367;BME280;57745;42.524;12.052;2022-12-15T07:28:28;96027.75;;;15.07;58.97
58367;BME280;57745;42.524;12.052;2022-12-15T07:30:54;96031.03;;;15.12;58.67
58367;BME280;57745;42.524;12.052;2022-12-15T07:33:20;96030.72;;;15.09;58.84
58367;BME280;57745;42.524;12.052;2022-12-15T07:35:53;96038.31;;;15.15;58.62
58367;BME280;57745;42.524;12.052;2022-12-15T07:38:18;96036.19;;;15.09;58.62
58367;BME280;57745;42.524;12.052;2022-12-15T07:40:44;96035.72;;;15.11;58.72
58367;BME280;57745;42.524;12.052;2022-12-15T07:43:09;96041.25;;;15.02;59.11
58367;BME280;57745;42.524;12.052;2022-12-15T07:45:35;96037.25;;;15.12;58.67
58367;BME280;57745;42.524;12.052;2022-12-15T07:48:01;96043.28;;;15.16;58.61
58367;BME280;57745;42.524;12.052;2022-12-15T07:50:26;96053.63;;;15.12;58.93
58367;BME280;57745;42.524;12.052;2022-12-15T07:52:53;96060.97;;;15.06;59.13
58367;BME280;57745;42.524;12.052;2022-12-15T07:55:19;96057.94;;;15.04;59.18
58367;BME280;57745;42.524;12.052;2022-12-15T07:57:46;96047.88;;;15.10;58.89
58367;BME280;57745;42.524;12.052;2022-12-15T08:00:13;96057.34;;;15.00;59.33
58367;BME280;57745;42.524;12.052;2022-12-15T08:02:40;96049.63;;;14.98;59.07
58367;BME280;57745;42.524;12.052;2022-12-15T08:05:07;96051.59;;;14.98;59.32
58367;BME280;57745;42.524;12.052;2022-12-15T08:07:32;96049.00;;;15.03;59.05
58367;BME280;57745;42.524;12.052;2022-12-15T08:09:58;96046.88;;;14.98;59.21
58367;BME280;57745;42.524;12.052;2022-12-15T08:12:26;96052.81;;;14.97;59.10
58367;BME280;57745;42.524;12.052;2022-12-15T08:14:51;96039.13;;;15.06;58.87
58367;BME280;57745;42.524;12.052;2022-12-15T08:17:17;96045.50;;;15.03;59.14
58367;BME280;57745;42.524;12.052;2022-12-15T08:19:42;96043.38;;;15.07;58.84
58367;BME280;57745;42.524;12.052;2022-12-15T08:22:08;96050.38;;;14.99;59.36
58367;BME280;57745;42.524;12.052;2022-12-15T08:24:34;96055.72;;;14.93;59.45
58367;BME280;57745;42.524;12.052;2022-12-15T08:26:59;96055.84;;;14.99;59.34
58367;BME280;57745;42.524;12.052;2022-12-15T08:29:25;96068.72;;;14.98;59.30
58367;BME280;57745;42.524;12.052;2022-12-15T08:31:50;96059.03;;;14.97;59.20
58367;BME280;57745;42.524;12.052;2022-12-15T08:34:16;96068.50;;;15.11;58.85
58367;BME280;57745;42.524;12.052;2022-12-15T08:36:41;96076.13;;;15.07;59.26
58367;BME280;57745;42.524;12.052;2022-12-15T08:39:07;96071.44;;;15.07;59.07
58367;BME280;57745;42.524;12.052;2022-12-15T08:41:33;96066.25;;;15.09;58.92
58367;BME280;57745;42.524;12.052;2022-12-15T08:44:00;96072.91;;;15.08;59.21
58367;BME280;57745;42.524;12.052;2022-12-15T08:46:28;96060.53;;;14.98;59.48
58367;BME280;57745;42.524;12.052;2022-12-15T08:48:55;96058.88;;;15.01;59.34
58367;BME280;57745;42.524;12.052;2022-12-15T08:51:22;96059.75;;;15.07;59.24
58367;BME280;57745;42.524;12.052;2022-12-15T08:53:48;96055.44;;;14.07;62.62
58367;BME280;57745;42.524;12.052;2022-12-15T08:56:16;96063.34;;;14.47;60.96
58367;BME280;57745;42.524;12.052;2022-12-15T08:58:43;96060.47;;;14.84;59.74
58367;BME280;57745;42.524;12.052;2022-12-15T09:01:17;96047.19;;;15.00;58.98
58367;BME280;57745;42.524;12.052;2022-12-15T09:03:43;96045.50;;;15.03;58.92
58367;BME280;57745;42.524;12.052;2022-12-15T09:06:41;96054.56;;;15.09;58.67
58367;BME280;57745;42.524;12.052;2022-12-15T09:09:10;96052.41;;;15.13;58.27
58367;BME280;57745;42.524;12.052;2022-12-15T09:11:36;96058.34;;;15.12;58.27
58367;BME280;57745;42.524;12.052;2022-12-15T09:14:01;96058.81;;;15.10;58.31
58367;BME280;57745;42.524;12.052;2022-12-15T09:16:27;96070.03;;;15.12;58.21
58367;BME280;57745;42.524;12.052;2022-12-15T09:18:56;96075.16;;;15.19;58.02
58367;BME280;57745;42.524;12.052;2022-12-15T09:21:24;96067.72;;;15.20;57.88
58367;BME280;57745;42.524;12.052;2022-12-15T09:23:52;96068.97;;;15.09;58.21
58367;BME280;57745;42.524;12.052;2022-12-15T09:26:20;96068.50;;;15.11;58.29
58367;BME280;57745;42.524;12.052;2022-12-15T09:28:46;96058.34;;;15.12;58.20
58367;BME280;57745;42.524;12.052;2022-12-15T09:31:16;96051.19;;;15.14;58.19
58367;BME280;57745;42.524;12.052;2022-12-15T09:33:45;96054.53;;;15.18;58.04
58367;BME280;57745;42.524;12.052;2022-12-15T09:36:11;96045.72;;;15.14;58.13
58367;BME280;57745;42.524;12.052;2022-12-15T09:38:37;96046.50;;;15.15;58.01
58367;BME280;57745;42.524;12.052;2022-12-15T09:46:32;96044.97;;;15.14;58.01
58367;BME280;57745;42.524;12.052;2022-12-15T09:49:08;96050.28;;;15.17;57.67
58367;BME280;57745;42.524;12.052;2022-12-15T09:51:41;96054.22;;;15.16;58.09
58367;BME280;57745;42.524;12.052;2022-12-15T09:54:09;96049.69;;;15.13;58.05
58367;BME280;57745;42.524;12.052;2022-12-15T09:56:42;96042.53;;;15.16;57.94
58367;BME280;57745;42.524;12.052;2022-12-15T09:59:50;96031.91;;;15.18;57.92
58367;BME280;57745;42.524;12.052;2022-12-15T10:02:43;96033.47;;;15.09;57.95
58367;BME280;57745;42.524;12.052;2022-12-15T10:08:14;96033.94;;;15.08;58.29
58367;BME280;57745;42.524;12.052;2022-12-15T10:13:16;96036.31;;;15.15;57.94
58367;BME280;57745;42.524;12.052;2022-12-15T10:15:55;96019.94;;;15.15;58.27
58367;BME280;57745;42.524;12.052;2022-12-15T10:19:11;96012.19;;;15.14;58.10
58367;BME280;57745;42.524;12.052;2022-12-15T10:21:11;96012.50;;;15.16;57.93
58367;BME280;57745;42.524;12.052;2022-12-15T10:23:39;96016.75;;;15.17;57.83
58367;BME280;57745;42.524;12.052;2022-12-15T10:26:22;96008.25;;;15.15;57.95
58367;BME280;57745;42.524;12.052;2022-12-15T10:31:52;95997.69;;;15.07;58.26
58367;BME280;57745;42.524;12.052;2022-12-15T10:36:55;95994.59;;;15.15;57.89
58367;BME280;57745;42.524;12.052;2022-12-15T10:39:22;95993.38;;;15.16;57.92
58367;BME280;57745;42.524;12.052;2022-12-15T10:42:12;95983.50;;;15.18;58.07
58367;BME280;57745;42.524;12.052;2022-12-15T10:44:40;95969.56;;;15.16;57.94
58367;BME280;57745;42.524;12.052;2022-12-15T10:47:28;95974.72;;;15.14;58.42
58367;BME280;57745;42.524;12.052;2022-12-15T10:49:54;95966.81;;;15.16;58.12
58367;BME280;57745;42.524;12.052;2022-12-15T10:52:39;95964.72;;;15.11;58.38
58367;BME280;57745;42.524;12.052;2022-12-15T10:55:38;95948.34;;;15.11;58.30
58367;BME280;57745;42.524;12.052;2022-12-15T10:58:24;95962.75;;;15.12;58.30
58367;BME280;57745;42.524;12.052;2022-12-15T11:01:06;95958.91;;;15.18;58.07
58367;BME280;57745;42.524;12.052;2022-12-15T11:03:36;95952.69;;;15.18;58.05
58367;BME280;57745;42.524;12.052;2022-12-15T11:06:11;95945.91;;;15.13;58.34
58367;BME280;57745;42.524;12.052;2022-12-15T11:08:40;95943.09;;;15.22;57.87
58367;BME280;57745;42.524;12.052;2022-12-15T11:11:23;95932.53;;;15.15;58.17
58367;BME280;57745;42.524;12.052;2022-12-15T11:14:20;95928.16;;;15.08;58.61
58367;BME280;57745;42.524;12.052;2022-12-15T11:16:58;95926.78;;;15.13;58.28
58367;BME280;57745;42.524;12.052;2022-12-15T11:25:02;95920.69;;;15.18;58.23
58367;BME280;57745;42.524;12.052;2022-12-15T11:27:34;95917.38;;;15.14;58.42
58367;BME280;57745;42.524;12.052;2022-12-15T11:30:12;95898.63;;;15.07;58.70
58367;BME280;57745;42.524;12.052;2022-12-15T11:32:41;95899.84;;;15.06;58.83
58367;BME280;57745;42.524;12.052;2022-12-15T11:35:15;95890.50;;;15.13;58.57
58367;BME280;57745;42.524;12.052;2022-12-15T11:37:44;95887.03;;;15.12;58.80
58367;BME280;57745;42.524;12.052;2022-12-15T11:40:56;95877.91;;;15.15;58.40
58367;BME280;57745;42.524;12.052;2022-12-15T11:43:33;95869.41;;;15.13;58.44
58367;BME280;57745;42.524;12.052;2022-12-15T11:48:45;95818.38;;;15.19;58.43
58367;BME280;57745;42.524;12.052;2022-12-15T11:57:15;95815.72;;;15.10;58.90
58367;BME280;57745;42.524;12.052;2022-12-15T11:59:42;95823.09;;;15.19;58.56
58367;BME280;57745;42.524;12.052;2022-12-15T12:02:21;95825.53;;;15.17;58.68
58367;BME280;57745;42.524;12.052;2022-12-15T12:07:49;95833.16;;;15.13;58.91
58367;BME280;57745;42.524;12.052;2022-12-15T12:16:05;95856.44;;;15.08;59.25
58367;BME280;57745;42.524;12.052;2022-12-15T12:18:42;95863.19;;;15.13;59.02
58367;BME280;57745;42.524;12.052;2022-12-15T12:21:15;95860.13;;;15.20;58.94
58367;BME280;57745;42.524;12.052;2022-12-15T12:24:01;95856.13;;;15.21;58.72
58367;BME280;57745;42.524;12.052;2022-12-15T12:26:40;95854.94;;;15.07;59.31
58367;BME280;57745;42.524;12.052;2022-12-15T12:29:16;95835.31;;;15.08;59.27
58367;BME280;57745;42.524;12.052;2022-12-15T12:34:38;95817.91;;;15.06;59.39
58367;BME280;57745;42.524;12.052;2022-12-15T12:37:34;95819.78;;;15.15;59.08
58367;BME280;57745;42.524;12.052;2022-12-15T12:40:06;95818.56;;;15.01;59.69
58367;BME280;57745;42.524;12.052;2022-12-15T12:42:55;95816.41;;;15.05;59.71
58367;BME280;57745;42.524;12.052;2022-12-15T12:45:25;95821.22;;;14.95;60.05
58367;BME280;57745;42.524;12.052;2022-12-15T12:47:55;95819.50;;;14.98;60.05
58367;BME280;57745;42.524;12.052;2022-12-15T12:50:24;95816.28;;;14.85;60.88
58367;BME280;57745;42.524;12.052;2022-12-15T12:52:53;95821.06;;;14.75;61.45
58367;BME280;57745;42.524;12.052;2022-12-15T12:55:36;95810.81;;;14.85;61.35
58367;BME280;57745;42.524;12.052;2022-12-15T12:58:02;95811.31;;;14.98;61.01
58367;BME280;57745;42.524;12.052;2022-12-15T13:00:30;95802.91;;;14.87;61.40
58367;BME280;57745;42.524;12.052;2022-12-15T13:05:38;95788.78;;;14.73;62.46
58367;BME280;57745;42.524;12.052;2022-12-15T13:10:40;95792.56;;;14.76;63.01
58367;BME280;57745;42.524;12.052;2022-12-15T13:15:45;95782.38;;;14.77;63.51
58367;BME280;57745;42.524;12.052;2022-12-15T13:18:23;95786.31;;;14.61;64.12
58367;BME280;57745;42.524;12.052;2022-12-15T13:20:54;95780.69;;;14.64;64.27
58367;BME280;57745;42.524;12.052;2022-12-15T13:28:40;95786.50;;;14.57;64.79
58367;BME280;57745;42.524;12.052;2022-12-15T13:34:16;95770.53;;;14.80;64.06
58367;BME280;57745;42.524;12.052;2022-12-15T13:36:44;95788.56;;;14.62;64.77
58367;BME280;57745;42.524;12.052;2022-12-15T13:41:37;95783.16;;;14.92;62.94
58367;BME280;57745;42.524;12.052;2022-12-15T13:44:13;95771.09;;;14.84;63.46
58367;BME280;57745;42.524;12.052;2022-12-15T13:46:43;95757.53;;;14.74;63.82
58367;BME280;57745;42.524;12.052;2022-12-15T13:49:33;95766.94;;;14.73;64.30
58367;BME280;57745;42.524;12.052;2022-12-15T13:52:09;95767.22;;;14.37;65.84
58367;BME280;57745;42.524;12.052;2022-12-15T13:54:40;95738.81;;;14.67;64.69
58367;BME280;57745;42.524;12.052;2022-12-15T13:57:13;95744.16;;;14.62;65.22
58367;BME280;57745;42.524;12.052;2022-12-15T13:59:46;95747.72;;;14.53;65.77
58367;BME280;57745;42.524;12.052;2022-12-15T14:07:36;95733.84;;;14.81;64.34
58367;BME280;57745;42.524;12.052;2022-12-15T14:10:04;95727.97;;;14.88;64.07
58367;BME280;57745;42.524;12.052;2022-12-15T14:12:31;95724.13;;;14.94;63.63
58367;BME280;57745;42.524;12.052;2022-12-15T14:14:58;95713.19;;;14.50;66.01
58367;BME280;57745;42.524;12.052;2022-12-15T14:17:24;95725.06;;;14.77;64.86
58367;BME280;57745;42.524;12.052;2022-12-15T14:19:49;95716.31;;;14.43;66.52
58367;BME280;57745;42.524;12.052;2022-12-15T14:22:26;95711.03;;;14.16;68.30
58367;BME280;57745;42.524;12.052;2022-12-15T14:24:59;95729.72;;;14.32;68.34
58367;BME280;57745;42.524;12.052;2022-12-15T14:27:28;95706.38;;;14.31;67.76
58367;BME280;57745;42.524;12.052;2022-12-15T14:32:39;95691.94;;;14.54;66.69
58367;BME280;57745;42.524;12.052;2022-12-15T14:36:08;95684.78;;;14.42;67.68
58367;BME280;57745;42.524;12.052;2022-12-15T14:38:06;95679.69;;;14.50;67.25
58367;BME280;57745;42.524;12.052;2022-12-15T14:40:35;95676.75;;;14.38;68.85
58367;BME280;57745;42.524;12.052;2022-12-15T14:43:02;95671.69;;;14.61;66.78
58367;BME280;57745;42.524;12.052;2022-12-15T14:45:30;95679.81;;;14.55;67.17
58367;BME280;57745;42.524;12.052;2022-12-15T14:48:01;95663.97;;;14.30;69.09
58367;BME280;57745;42.524;12.052;2022-12-15T14:50:30;95671.91;;;14.43;67.68
58367;BME280;57745;42.524;12.052;2022-12-15T14:52:58;95668.31;;;14.66;67.05
58367;BME280;57745;42.524;12.052;2022-12-15T14:57:55;95673.03;;;14.65;66.86
58367;BME280;57745;42.524;12.052;2022-12-15T15:00:28;95665.50;;;14.46;68.62